sensor_id;sensor_type;location;lat;lon;timestamp;P1;durP1;ratioP1;P2;durP2;ratioP2
42866;SDS011;39461;40.948;73.006;2023-01-25T00:00:54;51.38;;;23.05;;
42866;SDS011;39461;40.948;73.006;2023-01-25T00:03:28;52.25;;;23.55;;
42866;SDS011;39461;40.948;73.006;2023-01-25T00:06:01;46.53;;;22.95;;
42866;SDS011;39461;40.948;73.006;2023-01-25T00:08:28;54.20;;;23.17;;
42866;SDS011;39461;40.948;73.006;2023-01-25T00:11:03;51.72;;;22.52;;
42866;SDS011;39461;40.948;73.006;2023-01-25T00:16:37;53.20;;;23.25;;
42866;SDS011;39461;40.948;73.006;2023-01-25T00:19:12;52.75;;;23.88;;
42866;SDS011;39461;40.948;73.006;2023-01-25T00:21:47;50.92;;;22.98;;
42866;SDS011;39461;40.948;73.006;2023-01-25T00:24:20;52.17;;;22.73;;
42866;SDS011;39461;40.948;73.006;2023-01-25T00:26:53;58.85;;;25.63;;
42866;SDS011;39461;40.948;73.006;2023-01-25T00:29:30;67.93;;;31.70;;
42866;SDS011;39461;40.948;73.006;2023-01-25T00:32:27;84.00;;;36.50;;
42866;SDS011;39461;40.948;73.006;2023-01-25T00:34:59;62.45;;;31.15;;
42866;SDS011;39461;40.948;73.006;2023-01-25T00:37:38;70.53;;;29.00;;
42866;SDS011;39461;40.948;73.006;2023-01-25T00:40:11;74.25;;;33.75;;
42866;SDS011;39461;40.948;73.006;2023-01-25T00:42:44;82.57;;;35.08;;
42866;SDS011;39461;40.948;73.006;2023-01-25T00:45:17;77.43;;;34.60;;
42866;SDS011;39461;40.948;73.006;2023-01-25T00:47:52;78.78;;;34.05;;
42866;SDS011;39461;40.948;73.006;2023-01-25T00:50:26;110.22;;;45.65;;
42866;SDS011;39461;40.948;73.006;2023-01-25T00:52:59;86.78;;;39.22;;
42866;SDS011;39461;40.948;73.006;2023-01-25T00:55:32;85.18;;;40.25;;
42866;SDS011;39461;40.948;73.006;2023-01-25T00:58:05;85.65;;;39.38;;
42866;SDS011;39461;40.948;73.006;2023-01-25T01:00:38;77.05;;;34.50;;
42866;SDS011;39461;40.948;73.006;2023-01-25T01:03:11;76.45;;;35.78;;
42866;SDS011;39461;40.948;73.006;2023-01-25T01:05:44;85.40;;;37.28;;
42866;SDS011;39461;40.948;73.006;2023-01-25T01:08:23;76.47;;;34.97;;
42866;SDS011;39461;40.948;73.006;2023-01-25T01:10:59;69.40;;;32.05;;
42866;SDS011;39461;40.948;73.006;2023-01-25T01:13:34;64.75;;;32.03;;
42866;SDS011;39461;40.948;73.006;2023-01-25T01:16:09;64.93;;;32.95;;
42866;SDS011;39461;40.948;73.006;2023-01-25T01:18:43;72.70;;;35.38;;
42866;SDS011;39461;40.948;73.006;2023-01-25T01:21:17;70.60;;;35.67;;
42866;SDS011;39461;40.948;73.006;2023-01-25T01:23:50;82.57;;;41.63;;
42866;SDS011;39461;40.948;73.006;2023-01-25T01:26:23;103.35;;;48.90;;
42866;SDS011;39461;40.948;73.006;2023-01-25T01:28:56;104.28;;;50.63;;
42866;SDS011;39461;40.948;73.006;2023-01-25T01:31:30;107.95;;;48.95;;
42866;SDS011;39461;40.948;73.006;2023-01-25T01:34:11;90.97;;;45.10;;
42866;SDS011;39461;40.948;73.006;2023-01-25T01:36:45;107.85;;;50.42;;
42866;SDS011;39461;40.948;73.006;2023-01-25T01:39:18;121.60;;;58.83;;
42866;SDS011;39461;40.948;73.006;2023-01-25T01:41:51;158.15;;;69.63;;
42866;SDS011;39461;40.948;73.006;2023-01-25T01:44:44;193.40;;;84.20;;
42866;SDS011;39461;40.948;73.006;2023-01-25T01:47:41;236.38;;;96.05;;
42866;SDS011;39461;40.948;73.006;2023-01-25T01:50:20;265.75;;;104.82;;
42866;SDS011;39461;40.948;73.006;2023-01-25T01:52:56;255.95;;;101.90;;
42866;SDS011;39461;40.948;73.006;2023-01-25T01:55:29;207.05;;;87.85;;
42866;SDS011;39461;40.948;73.006;2023-01-25T01:58:02;197.95;;;79.72;;
42866;SDS011;39461;40.948;73.006;2023-01-25T02:00:36;158.27;;;70.03;;
42866;SDS011;39461;40.948;73.006;2023-01-25T02:03:11;172.55;;;76.07;;
42866;SDS011;39461;40.948;73.006;2023-01-25T02:08:18;146.50;;;69.90;;
42866;SDS011;39461;40.948;73.006;2023-01-25T02:10:51;131.02;;;66.65;;
42866;SDS011;39461;40.948;73.006;2023-01-25T02:13:24;145.50;;;70.32;;
42866;SDS011;39461;40.948;73.006;2023-01-25T02:15:58;136.75;;;71.43;;
42866;SDS011;39461;40.948;73.006;2023-01-25T02:18:31;246.32;;;95.30;;
42866;SDS011;39461;40.948;73.006;2023-01-25T02:21:11;187.65;;;98.97;;
42866;SDS011;39461;40.948;73.006;2023-01-25T02:26:20;164.35;;;82.68;;
42866;SDS011;39461;40.948;73.006;2023-01-25T02:29:01;166.27;;;80.13;;
42866;SDS011;39461;40.948;73.006;2023-01-25T02:31:35;162.23;;;78.35;;
42866;SDS011;39461;40.948;73.006;2023-01-25T02:34:12;174.80;;;84.30;;
42866;SDS011;39461;40.948;73.006;2023-01-25T02:36:47;183.77;;;82.88;;
42866;SDS011;39461;40.948;73.006;2023-01-25T02:39:23;234.90;;;97.75;;
42866;SDS011;39461;40.948;73.006;2023-01-25T02:42:07;211.63;;;90.25;;
42866;SDS011;39461;40.948;73.006;2023-01-25T02:44:45;173.40;;;77.75;;
42866;SDS011;39461;40.948;73.006;2023-01-25T02:47:19;152.10;;;71.28;;
42866;SDS011;39461;40.948;73.006;2023-01-25T02:49:54;154.32;;;72.43;;
42866;SDS011;39461;40.948;73.006;2023-01-25T02:52:29;162.77;;;77.38;;
42866;SDS011;39461;40.948;73.006;2023-01-25T02:55:02;168.45;;;79.28;;
42866;SDS011;39461;40.948;73.006;2023-01-25T02:57:35;182.00;;;82.22;;
42866;SDS011;39461;40.948;73.006;2023-01-25T03:00:08;204.07;;;90.80;;
42866;SDS011;39461;40.948;73.006;2023-01-25T03:02:42;178.02;;;89.10;;
42866;SDS011;39461;40.948;73.006;2023-01-25T03:05:17;170.52;;;83.32;;
42866;SDS011;39461;40.948;73.006;2023-01-25T03:07:52;169.90;;;82.68;;
42866;SDS011;39461;40.948;73.006;2023-01-25T03:10:31;187.13;;;89.80;;
42866;SDS011;39461;40.948;73.006;2023-01-25T03:13:06;200.82;;;93.90;;
42866;SDS011;39461;40.948;73.006;2023-01-25T03:15:41;176.23;;;84.35;;
42866;SDS011;39461;40.948;73.006;2023-01-25T03:18:14;181.68;;;87.38;;
42866;SDS011;39461;40.948;73.006;2023-01-25T03:20:49;183.02;;;89.10;;
42866;SDS011;39461;40.948;73.006;2023-01-25T03:23:24;186.25;;;91.07;;
42866;SDS011;39461;40.948;73.006;2023-01-25T03:26:09;187.48;;;92.53;;
42866;SDS011;39461;40.948;73.006;2023-01-25T03:28:43;186.65;;;90.50;;
42866;SDS011;39461;40.948;73.006;2023-01-25T03:31:18;190.00;;;92.72;;
42866;SDS011;39461;40.948;73.006;2023-01-25T03:33:53;188.30;;;91.75;;
42866;SDS011;39461;40.948;73.006;2023-01-25T03:36:26;218.75;;;103.90;;
42866;SDS011;39461;40.948;73.006;2023-01-25T03:38:59;240.82;;;110.45;;
42866;SDS011;39461;40.948;73.006;2023-01-25T03:41:34;241.15;;;112.22;;
42866;SDS011;39461;40.948;73.006;2023-01-25T03:44:13;240.52;;;109.07;;
42866;SDS011;39461;40.948;73.006;2023-01-25T03:46:46;250.40;;;108.90;;
42866;SDS011;39461;40.948;73.006;2023-01-25T03:49:21;244.68;;;113.32;;
42866;SDS011;39461;40.948;73.006;2023-01-25T03:51:56;236.82;;;111.60;;
42866;SDS011;39461;40.948;73.006;2023-01-25T03:54:33;230.95;;;108.55;;
42866;SDS011;39461;40.948;73.006;2023-01-25T03:57:08;201.63;;;98.60;;
42866;SDS011;39461;40.948;73.006;2023-01-25T03:59:41;183.10;;;87.38;;
42866;SDS011;39461;40.948;73.006;2023-01-25T04:02:21;184.00;;;82.53;;
42866;SDS011;39461;40.948;73.006;2023-01-25T04:04:54;182.43;;;83.55;;
42866;SDS011;39461;40.948;73.006;2023-01-25T04:07:21;182.98;;;85.32;;
42866;SDS011;39461;40.948;73.006;2023-01-25T04:09:52;188.35;;;90.07;;
42866;SDS011;39461;40.948;73.006;2023-01-25T04:12:27;201.13;;;95.30;;
42866;SDS011;39461;40.948;73.006;2023-01-25T04:15:02;217.68;;;100.43;;
42866;SDS011;39461;40.948;73.006;2023-01-25T04:17:35;237.88;;;108.78;;
42866;SDS011;39461;40.948;73.006;2023-01-25T04:20:09;289.17;;;144.75;;
42866;SDS011;39461;40.948;73.006;2023-01-25T04:22:44;297.88;;;141.85;;
42866;SDS011;39461;40.948;73.006;2023-01-25T04:25:17;339.10;;;150.48;;
42866;SDS011;39461;40.948;73.006;2023-01-25T04:27:52;304.42;;;135.88;;
42866;SDS011;39461;40.948;73.006;2023-01-25T04:30:27;262.67;;;118.95;;
42866;SDS011;39461;40.948;73.006;2023-01-25T04:33:02;263.08;;;121.60;;
42866;SDS011;39461;40.948;73.006;2023-01-25T04:35:35;298.45;;;132.30;;
42866;SDS011;39461;40.948;73.006;2023-01-25T04:38:08;386.95;;;160.10;;
42866;SDS011;39461;40.948;73.006;2023-01-25T04:40:42;378.25;;;164.63;;
42866;SDS011;39461;40.948;73.006;2023-01-25T04:43:15;318.92;;;146.98;;
42866;SDS011;39461;40.948;73.006;2023-01-25T04:45:49;277.08;;;129.43;;
42866;SDS011;39461;40.948;73.006;2023-01-25T04:48:22;260.33;;;125.63;;
42866;SDS011;39461;40.948;73.006;2023-01-25T04:50:57;262.70;;;121.47;;
42866;SDS011;39461;40.948;73.006;2023-01-25T04:53:30;236.50;;;111.68;;
42866;SDS011;39461;40.948;73.006;2023-01-25T04:56:06;197.68;;;100.60;;
42866;SDS011;39461;40.948;73.006;2023-01-25T04:58:39;181.80;;;91.05;;
42866;SDS011;39461;40.948;73.006;2023-01-25T05:01:16;194.23;;;97.63;;
42866;SDS011;39461;40.948;73.006;2023-01-25T05:03:49;184.90;;;93.93;;
42866;SDS011;39461;40.948;73.006;2023-01-25T05:06:22;173.85;;;90.70;;
42866;SDS011;39461;40.948;73.006;2023-01-25T05:08:55;183.07;;;92.88;;
42866;SDS011;39461;40.948;73.006;2023-01-25T05:11:30;185.40;;;97.00;;
42866;SDS011;39461;40.948;73.006;2023-01-25T05:14:07;194.60;;;100.65;;
42866;SDS011;39461;40.948;73.006;2023-01-25T05:16:42;195.55;;;101.38;;
42866;SDS011;39461;40.948;73.006;2023-01-25T05:19:18;222.27;;;112.57;;
42866;SDS011;39461;40.948;73.006;2023-01-25T05:21:55;228.05;;;114.15;;
42866;SDS011;39461;40.948;73.006;2023-01-25T05:24:31;239.30;;;120.63;;
42866;SDS011;39461;40.948;73.006;2023-01-25T05:27:04;236.00;;;114.63;;
42866;SDS011;39461;40.948;73.006;2023-01-25T05:32:39;319.75;;;147.40;;
42866;SDS011;39461;40.948;73.006;2023-01-25T05:35:15;252.80;;;118.80;;
42866;SDS011;39461;40.948;73.006;2023-01-25T05:37:48;232.57;;;112.10;;
42866;SDS011;39461;40.948;73.006;2023-01-25T05:40:23;155.52;;;76.10;;
42866;SDS011;39461;40.948;73.006;2023-01-25T05:43:00;110.88;;;56.83;;
42866;SDS011;39461;40.948;73.006;2023-01-25T05:45:39;105.13;;;52.15;;
42866;SDS011;39461;40.948;73.006;2023-01-25T05:48:14;107.32;;;49.15;;
42866;SDS011;39461;40.948;73.006;2023-01-25T05:50:49;117.32;;;57.88;;
42866;SDS011;39461;40.948;73.006;2023-01-25T05:53:25;113.78;;;52.58;;
42866;SDS011;39461;40.948;73.006;2023-01-25T05:58:57;75.07;;;34.90;;
42866;SDS011;39461;40.948;73.006;2023-01-25T06:01:33;75.07;;;36.75;;
42866;SDS011;39461;40.948;73.006;2023-01-25T06:04:08;66.63;;;32.10;;
42866;SDS011;39461;40.948;73.006;2023-01-25T06:06:46;68.88;;;34.47;;
42866;SDS011;39461;40.948;73.006;2023-01-25T06:09:14;63.42;;;31.65;;
42866;SDS011;39461;40.948;73.006;2023-01-25T06:11:49;73.57;;;36.25;;
42866;SDS011;39461;40.948;73.006;2023-01-25T06:14:24;72.15;;;34.92;;
42866;SDS011;39461;40.948;73.006;2023-01-25T06:16:57;70.03;;;38.22;;
42866;SDS011;39461;40.948;73.006;2023-01-25T06:19:31;89.70;;;43.65;;
42866;SDS011;39461;40.948;73.006;2023-01-25T06:22:06;86.78;;;43.42;;
42866;SDS011;39461;40.948;73.006;2023-01-25T06:24:40;92.90;;;42.97;;
42866;SDS011;39461;40.948;73.006;2023-01-25T06:27:13;102.13;;;49.88;;
42866;SDS011;39461;40.948;73.006;2023-01-25T06:29:46;87.85;;;47.55;;
42866;SDS011;39461;40.948;73.006;2023-01-25T06:35:23;91.32;;;47.70;;
42866;SDS011;39461;40.948;73.006;2023-01-25T06:37:56;80.10;;;40.13;;
42866;SDS011;39461;40.948;73.006;2023-01-25T06:40:32;80.03;;;41.92;;
42866;SDS011;39461;40.948;73.006;2023-01-25T06:43:08;88.40;;;45.85;;
42866;SDS011;39461;40.948;73.006;2023-01-25T06:45:41;90.93;;;46.67;;
42866;SDS011;39461;40.948;73.006;2023-01-25T06:48:18;88.40;;;44.70;;
42866;SDS011;39461;40.948;73.006;2023-01-25T06:50:54;81.35;;;43.25;;
42866;SDS011;39461;40.948;73.006;2023-01-25T06:53:34;87.25;;;43.58;;
42866;SDS011;39461;40.948;73.006;2023-01-25T06:56:17;90.25;;;43.10;;
42866;SDS011;39461;40.948;73.006;2023-01-25T06:58:52;80.07;;;41.90;;
42866;SDS011;39461;40.948;73.006;2023-01-25T07:01:27;74.65;;;37.30;;
42866;SDS011;39461;40.948;73.006;2023-01-25T07:04:06;76.80;;;38.40;;
42866;SDS011;39461;40.948;73.006;2023-01-25T07:06:45;83.93;;;41.85;;
42866;SDS011;39461;40.948;73.006;2023-01-25T07:09:20;81.07;;;43.30;;
42866;SDS011;39461;40.948;73.006;2023-01-25T07:15:03;90.57;;;49.58;;
42866;SDS011;39461;40.948;73.006;2023-01-25T07:17:40;102.18;;;54.92;;
42866;SDS011;39461;40.948;73.006;2023-01-25T07:20:13;94.75;;;50.17;;
42866;SDS011;39461;40.948;73.006;2023-01-25T07:22:50;98.50;;;53.75;;
42866;SDS011;39461;40.948;73.006;2023-01-25T07:25:28;96.82;;;51.88;;
42866;SDS011;39461;40.948;73.006;2023-01-25T07:28:08;96.60;;;53.10;;
42866;SDS011;39461;40.948;73.006;2023-01-25T07:30:43;97.82;;;52.03;;
42866;SDS011;39461;40.948;73.006;2023-01-25T07:33:16;113.95;;;59.60;;
42866;SDS011;39461;40.948;73.006;2023-01-25T07:38:52;137.50;;;75.50;;
42866;SDS011;39461;40.948;73.006;2023-01-25T07:41:29;155.40;;;84.38;;
42866;SDS011;39461;40.948;73.006;2023-01-25T07:44:08;160.40;;;86.93;;
42866;SDS011;39461;40.948;73.006;2023-01-25T07:46:43;152.30;;;87.80;;
42866;SDS011;39461;40.948;73.006;2023-01-25T07:49:18;160.45;;;86.53;;
42866;SDS011;39461;40.948;73.006;2023-01-25T07:51:52;152.73;;;87.28;;
42866;SDS011;39461;40.948;73.006;2023-01-25T07:54:26;157.98;;;87.40;;
42866;SDS011;39461;40.948;73.006;2023-01-25T07:57:04;166.30;;;89.15;;
42866;SDS011;39461;40.948;73.006;2023-01-25T07:59:39;144.52;;;82.45;;
42866;SDS011;39461;40.948;73.006;2023-01-25T08:02:12;98.63;;;54.60;;
42866;SDS011;39461;40.948;73.006;2023-01-25T08:04:49;107.82;;;58.78;;
42866;SDS011;39461;40.948;73.006;2023-01-25T08:07:19;92.05;;;50.30;;
42866;SDS011;39461;40.948;73.006;2023-01-25T08:09:53;80.43;;;44.05;;
42866;SDS011;39461;40.948;73.006;2023-01-25T08:12:28;77.75;;;42.55;;
42866;SDS011;39461;40.948;73.006;2023-01-25T08:15:10;77.32;;;42.67;;
42866;SDS011;39461;40.948;73.006;2023-01-25T08:18:03;81.80;;;46.28;;
42866;SDS011;39461;40.948;73.006;2023-01-25T08:20:36;90.68;;;49.30;;
42866;SDS011;39461;40.948;73.006;2023-01-25T08:23:13;89.13;;;46.88;;
42866;SDS011;39461;40.948;73.006;2023-01-25T08:25:48;86.38;;;46.22;;
42866;SDS011;39461;40.948;73.006;2023-01-25T08:28:24;96.50;;;50.05;;
42866;SDS011;39461;40.948;73.006;2023-01-25T08:31:04;94.07;;;48.70;;
42866;SDS011;39461;40.948;73.006;2023-01-25T08:33:42;91.75;;;47.28;;
42866;SDS011;39461;40.948;73.006;2023-01-25T08:36:17;93.38;;;46.45;;
42866;SDS011;39461;40.948;73.006;2023-01-25T08:38:52;89.28;;;46.13;;
42866;SDS011;39461;40.948;73.006;2023-01-25T08:41:28;96.53;;;50.58;;
42866;SDS011;39461;40.948;73.006;2023-01-25T08:44:03;93.25;;;47.88;;
42866;SDS011;39461;40.948;73.006;2023-01-25T08:46:36;109.47;;;54.05;;
42866;SDS011;39461;40.948;73.006;2023-01-25T08:49:12;108.82;;;57.78;;
42866;SDS011;39461;40.948;73.006;2023-01-25T08:51:48;107.90;;;58.00;;
42866;SDS011;39461;40.948;73.006;2023-01-25T08:54:21;114.25;;;62.45;;
42866;SDS011;39461;40.948;73.006;2023-01-25T08:56:57;98.63;;;51.13;;
42866;SDS011;39461;40.948;73.006;2023-01-25T08:59:30;90.57;;;48.50;;
42866;SDS011;39461;40.948;73.006;2023-01-25T09:02:08;99.93;;;54.55;;
42866;SDS011;39461;40.948;73.006;2023-01-25T09:04:46;105.28;;;58.03;;
42866;SDS011;39461;40.948;73.006;2023-01-25T09:07:20;103.22;;;54.95;;
42866;SDS011;39461;40.948;73.006;2023-01-25T09:09:54;106.15;;;57.10;;
42866;SDS011;39461;40.948;73.006;2023-01-25T09:12:29;103.72;;;55.03;;
42866;SDS011;39461;40.948;73.006;2023-01-25T09:15:05;96.57;;;51.60;;
42866;SDS011;39461;40.948;73.006;2023-01-25T09:17:38;107.10;;;56.17;;
42866;SDS011;39461;40.948;73.006;2023-01-25T09:20:15;110.57;;;60.60;;
42866;SDS011;39461;40.948;73.006;2023-01-25T09:22:54;117.55;;;60.42;;
42866;SDS011;39461;40.948;73.006;2023-01-25T09:25:30;122.28;;;66.38;;
42866;SDS011;39461;40.948;73.006;2023-01-25T09:28:05;113.85;;;59.80;;
42866;SDS011;39461;40.948;73.006;2023-01-25T09:30:45;112.57;;;58.65;;
42866;SDS011;39461;40.948;73.006;2023-01-25T09:33:27;117.78;;;60.88;;
42866;SDS011;39461;40.948;73.006;2023-01-25T09:36:04;116.28;;;59.30;;
42866;SDS011;39461;40.948;73.006;2023-01-25T09:38:38;121.57;;;60.78;;
42866;SDS011;39461;40.948;73.006;2023-01-25T09:46:40;141.10;;;65.25;;
42866;SDS011;39461;40.948;73.006;2023-01-25T09:52:22;131.10;;;68.80;;
42866;SDS011;39461;40.948;73.006;2023-01-25T09:55:00;115.75;;;65.50;;
42866;SDS011;39461;40.948;73.006;2023-01-25T09:57:37;120.75;;;66.82;;
42866;SDS011;39461;40.948;73.006;2023-01-25T10:00:17;131.55;;;65.78;;
42866;SDS011;39461;40.948;73.006;2023-01-25T10:02:55;125.68;;;67.18;;
42866;SDS011;39461;40.948;73.006;2023-01-25T10:05:31;121.53;;;64.93;;
42866;SDS011;39461;40.948;73.006;2023-01-25T10:08:05;121.35;;;65.80;;
42866;SDS011;39461;40.948;73.006;2023-01-25T10:10:41;124.13;;;64.50;;
42866;SDS011;39461;40.948;73.006;2023-01-25T10:13:17;134.38;;;66.57;;
42866;SDS011;39461;40.948;73.006;2023-01-25T10:15:59;128.80;;;62.97;;
42866;SDS011;39461;40.948;73.006;2023-01-25T10:18:39;150.00;;;80.82;;
42866;SDS011;39461;40.948;73.006;2023-01-25T10:30:22;101.40;;;53.13;;
42866;SDS011;39461;40.948;73.006;2023-01-25T10:32:59;112.63;;;59.40;;
42866;SDS011;39461;40.948;73.006;2023-01-25T10:35:38;100.80;;;54.03;;
42866;SDS011;39461;40.948;73.006;2023-01-25T10:38:57;111.43;;;57.55;;
42866;SDS011;39461;40.948;73.006;2023-01-25T10:41:20;130.90;;;68.10;;
42866;SDS011;39461;40.948;73.006;2023-01-25T10:44:03;146.77;;;75.38;;
42866;SDS011;39461;40.948;73.006;2023-01-25T10:47:03;133.20;;;63.50;;
42866;SDS011;39461;40.948;73.006;2023-01-25T10:49:39;125.35;;;66.13;;
42866;SDS011;39461;40.948;73.006;2023-01-25T10:52:20;140.70;;;74.25;;
42866;SDS011;39461;40.948;73.006;2023-01-25T10:57:47;123.18;;;67.00;;
42866;SDS011;39461;40.948;73.006;2023-01-25T11:00:27;122.97;;;62.78;;
42866;SDS011;39461;40.948;73.006;2023-01-25T11:03:03;111.68;;;59.60;;
42866;SDS011;39461;40.948;73.006;2023-01-25T11:05:38;121.95;;;63.78;;
42866;SDS011;39461;40.948;73.006;2023-01-25T11:10:50;122.00;;;62.53;;
42866;SDS011;39461;40.948;73.006;2023-01-25T11:13:27;129.43;;;64.72;;
42866;SDS011;39461;40.948;73.006;2023-01-25T11:18:38;132.48;;;69.85;;
42866;SDS011;39461;40.948;73.006;2023-01-25T11:21:22;123.30;;;64.43;;
42866;SDS011;39461;40.948;73.006;2023-01-25T11:23:58;131.23;;;71.05;;
42866;SDS011;39461;40.948;73.006;2023-01-25T11:26:34;123.80;;;65.78;;
42866;SDS011;39461;40.948;73.006;2023-01-25T11:31:50;119.43;;;63.97;;
42866;SDS011;39461;40.948;73.006;2023-01-25T11:34:27;113.18;;;61.17;;
42866;SDS011;39461;40.948;73.006;2023-01-25T11:42:22;129.13;;;68.13;;
42866;SDS011;39461;40.948;73.006;2023-01-25T11:45:27;149.60;;;80.30;;
42866;SDS011;39461;40.948;73.006;2023-01-25T11:56:05;240.65;;;117.05;;
42866;SDS011;39461;40.948;73.006;2023-01-25T11:58:47;238.18;;;120.35;;
42866;SDS011;39461;40.948;73.006;2023-01-25T12:04:38;230.77;;;123.85;;
42866;SDS011;39461;40.948;73.006;2023-01-25T12:07:22;229.98;;;124.88;;
42866;SDS011;39461;40.948;73.006;2023-01-25T12:09:55;240.70;;;129.13;;
42866;SDS011;39461;40.948;73.006;2023-01-25T12:20:34;251.73;;;135.77;;
42866;SDS011;39461;40.948;73.006;2023-01-25T12:25:55;255.20;;;134.38;;
42866;SDS011;39461;40.948;73.006;2023-01-25T12:28:35;246.70;;;129.60;;
42866;SDS011;39461;40.948;73.006;2023-01-25T12:31:13;299.92;;;150.15;;
42866;SDS011;39461;40.948;73.006;2023-01-25T12:33:55;259.63;;;129.00;;
42866;SDS011;39461;40.948;73.006;2023-01-25T12:36:42;231.90;;;117.03;;
42866;SDS011;39461;40.948;73.006;2023-01-25T12:39:27;248.75;;;119.53;;
42866;SDS011;39461;40.948;73.006;2023-01-25T12:42:08;219.27;;;112.05;;
42866;SDS011;39461;40.948;73.006;2023-01-25T12:47:31;214.63;;;111.78;;
42866;SDS011;39461;40.948;73.006;2023-01-25T12:50:12;213.98;;;109.05;;
42866;SDS011;39461;40.948;73.006;2023-01-25T12:52:58;237.02;;;118.53;;
42866;SDS011;39461;40.948;73.006;2023-01-25T12:55:35;261.35;;;129.30;;
42866;SDS011;39461;40.948;73.006;2023-01-25T13:11:23;244.98;;;120.75;;
42866;SDS011;39461;40.948;73.006;2023-01-25T13:16:50;244.88;;;122.78;;
42866;SDS011;39461;40.948;73.006;2023-01-25T13:22:03;257.17;;;124.70;;
42866;SDS011;39461;40.948;73.006;2023-01-25T13:27:33;231.27;;;115.20;;
42866;SDS011;39461;40.948;73.006;2023-01-25T13:35:52;342.13;;;175.75;;
42866;SDS011;39461;40.948;73.006;2023-01-25T13:38:29;390.27;;;203.57;;
42866;SDS011;39461;40.948;73.006;2023-01-25T13:41:10;371.90;;;189.35;;
42866;SDS011;39461;40.948;73.006;2023-01-25T13:43:46;363.77;;;182.00;;
42866;SDS011;39461;40.948;73.006;2023-01-25T13:49:16;373.98;;;192.30;;
42866;SDS011;39461;40.948;73.006;2023-01-25T13:51:53;405.02;;;214.88;;
42866;SDS011;39461;40.948;73.006;2023-01-25T13:54:29;474.52;;;237.55;;
42866;SDS011;39461;40.948;73.006;2023-01-25T13:57:05;448.95;;;220.45;;
42866;SDS011;39461;40.948;73.006;2023-01-25T13:59:41;371.50;;;190.00;;
42866;SDS011;39461;40.948;73.006;2023-01-25T14:02:21;377.33;;;194.40;;
42866;SDS011;39461;40.948;73.006;2023-01-25T14:04:57;379.77;;;194.82;;
42866;SDS011;39461;40.948;73.006;2023-01-25T14:07:34;362.88;;;188.45;;
42866;SDS011;39461;40.948;73.006;2023-01-25T14:10:08;376.98;;;195.93;;
42866;SDS011;39461;40.948;73.006;2023-01-25T14:12:42;383.92;;;188.30;;
42866;SDS011;39461;40.948;73.006;2023-01-25T14:15:16;380.00;;;191.25;;
42866;SDS011;39461;40.948;73.006;2023-01-25T14:21:07;377.00;;;186.75;;
42866;SDS011;39461;40.948;73.006;2023-01-25T14:26:42;419.35;;;221.23;;
42866;SDS011;39461;40.948;73.006;2023-01-25T14:29:18;427.70;;;224.30;;
42866;SDS011;39461;40.948;73.006;2023-01-25T14:31:49;444.23;;;224.55;;
42866;SDS011;39461;40.948;73.006;2023-01-25T14:34:25;434.35;;;225.43;;
42866;SDS011;39461;40.948;73.006;2023-01-25T14:37:18;440.90;;;232.27;;
42866;SDS011;39461;40.948;73.006;2023-01-25T14:39:54;475.23;;;245.60;;
42866;SDS011;39461;40.948;73.006;2023-01-25T14:42:27;457.45;;;235.65;;
42866;SDS011;39461;40.948;73.006;2023-01-25T14:45:02;474.85;;;243.07;;
42866;SDS011;39461;40.948;73.006;2023-01-25T14:47:39;478.85;;;250.02;;
42866;SDS011;39461;40.948;73.006;2023-01-25T14:53:15;508.05;;;261.65;;
42866;SDS011;39461;40.948;73.006;2023-01-25T14:55:53;496.13;;;263.13;;
42866;SDS011;39461;40.948;73.006;2023-01-25T14:58:32;492.48;;;259.50;;
42866;SDS011;39461;40.948;73.006;2023-01-25T15:04:11;516.38;;;271.00;;
42866;SDS011;39461;40.948;73.006;2023-01-25T15:06:52;522.83;;;276.33;;
42866;SDS011;39461;40.948;73.006;2023-01-25T15:14:52;586.42;;;330.25;;
42866;SDS011;39461;40.948;73.006;2023-01-25T15:17:36;556.60;;;310.70;;
42866;SDS011;39461;40.948;73.006;2023-01-25T15:20:47;512.75;;;276.77;;
42866;SDS011;39461;40.948;73.006;2023-01-25T15:25:55;437.95;;;233.82;;
42866;SDS011;39461;40.948;73.006;2023-01-25T15:28:29;427.10;;;216.18;;
42866;SDS011;39461;40.948;73.006;2023-01-25T15:31:10;379.55;;;191.73;;
42866;SDS011;39461;40.948;73.006;2023-01-25T15:33:47;369.00;;;187.13;;
42866;SDS011;39461;40.948;73.006;2023-01-25T15:36:21;426.13;;;217.73;;
42866;SDS011;39461;40.948;73.006;2023-01-25T15:38:55;460.75;;;226.15;;
42866;SDS011;39461;40.948;73.006;2023-01-25T15:41:33;487.27;;;242.73;;
42866;SDS011;39461;40.948;73.006;2023-01-25T15:44:11;486.27;;;242.73;;
42866;SDS011;39461;40.948;73.006;2023-01-25T15:46:49;469.92;;;240.93;;
42866;SDS011;39461;40.948;73.006;2023-01-25T15:49:27;433.60;;;223.13;;
42866;SDS011;39461;40.948;73.006;2023-01-25T15:52:04;383.83;;;199.15;;
42866;SDS011;39461;40.948;73.006;2023-01-25T15:54:42;440.58;;;226.00;;
42866;SDS011;39461;40.948;73.006;2023-01-25T15:57:31;453.45;;;227.50;;
42866;SDS011;39461;40.948;73.006;2023-01-25T16:03:03;402.83;;;211.90;;
42866;SDS011;39461;40.948;73.006;2023-01-25T16:05:39;393.40;;;211.30;;
42866;SDS011;39461;40.948;73.006;2023-01-25T16:08:14;370.85;;;200.75;;
42866;SDS011;39461;40.948;73.006;2023-01-25T16:10:44;378.95;;;200.63;;
42866;SDS011;39461;40.948;73.006;2023-01-25T16:13:20;370.50;;;201.85;;
42866;SDS011;39461;40.948;73.006;2023-01-25T16:15:57;375.58;;;204.13;;
42866;SDS011;39461;40.948;73.006;2023-01-25T16:18:34;394.20;;;207.00;;
42866;SDS011;39461;40.948;73.006;2023-01-25T16:21:12;370.52;;;197.07;;
42866;SDS011;39461;40.948;73.006;2023-01-25T16:23:46;380.65;;;196.65;;
42866;SDS011;39461;40.948;73.006;2023-01-25T16:26:22;380.63;;;197.50;;
42866;SDS011;39461;40.948;73.006;2023-01-25T16:28:59;393.42;;;203.23;;
42866;SDS011;39461;40.948;73.006;2023-01-25T16:31:36;446.83;;;231.73;;
42866;SDS011;39461;40.948;73.006;2023-01-25T16:34:12;514.38;;;260.10;;
42866;SDS011;39461;40.948;73.006;2023-01-25T16:37:00;510.27;;;256.02;;
42866;SDS011;39461;40.948;73.006;2023-01-25T16:39:33;478.52;;;239.98;;
42866;SDS011;39461;40.948;73.006;2023-01-25T16:42:08;460.20;;;230.93;;
42866;SDS011;39461;40.948;73.006;2023-01-25T16:44:43;410.58;;;199.63;;
42866;SDS011;39461;40.948;73.006;2023-01-25T16:47:23;377.00;;;188.10;;
42866;SDS011;39461;40.948;73.006;2023-01-25T16:50:00;314.10;;;159.07;;
42866;SDS011;39461;40.948;73.006;2023-01-25T16:52:33;303.45;;;157.60;;
42866;SDS011;39461;40.948;73.006;2023-01-25T16:55:09;299.58;;;150.00;;
42866;SDS011;39461;40.948;73.006;2023-01-25T16:57:43;271.27;;;139.73;;
42866;SDS011;39461;40.948;73.006;2023-01-25T17:00:22;279.23;;;144.20;;
42866;SDS011;39461;40.948;73.006;2023-01-25T17:02:57;274.58;;;140.93;;